< Typhoon 199618 1996 Season Typhoon 199620 >
Typhoon 199619 (WILLIE)
General InformationTrack Information on Google MapsDetailed Wind InformationList of All Images || Disaster Info.ResourceGoogle EarthGE AnimationAtom FeedGeoJSON
Detalied Best Track (Time Zone = UTC)
Year Month Day Hour Lat. Long. Pressure (hPa) Wind (kt) Class Image Chart
1996 9 15 18 18.6 107.2 1004 0 2 Image Chart
1996 9 16 00 18.9 107.5 1002 0 2 Image Chart
1996 9 16 06 19.0 108.0 1002 0 2 Image Chart
1996 9 16 12 18.8 108.6 1002 0 2 Image Chart
1996 9 16 18 18.5 108.7 1002 0 2 Image Chart
1996 9 17 00 18.2 108.8 1000 0 2 Image Chart
1996 9 17 06 17.9 108.9 998 0 2 Image Chart
1996 9 17 12 17.5 109.1 998 0 2 Image Chart
1996 9 17 18 17.2 109.6 998 0 2 Image Chart
1996 9 18 00 17.1 110.3 998 0 2 Image Chart
1996 9 18 06 17.4 110.8 996 35 3 Image Chart
1996 9 18 12 17.9 111.3 996 35 3 Image Chart
1996 9 18 18 18.7 111.4 996 35 3 Image Chart
1996 9 19 00 19.3 111.4 992 40 3 Image Chart
1996 9 19 06 19.8 111.3 992 40 3 Image Chart
1996 9 19 12 20.1 111.1 988 50 4 Image Chart
1996 9 19 18 20.3 110.8 990 50 4 Image Chart
1996 9 20 00 20.5 110.4 985 55 4 Image Chart
1996 9 20 06 20.4 110.0 985 55 4 Image Chart
1996 9 20 12 20.2 109.6 985 55 4 Image Chart
1996 9 20 18 20.0 109.1 985 55 4 Image Chart
1996 9 21 00 19.9 108.7 990 50 4 Image Chart
1996 9 21 06 19.7 108.3 992 45 3 Image Chart
1996 9 21 12 19.5 108.0 992 45 3 Image Chart
1996 9 21 18 19.4 107.5 992 45 3 Image Chart
1996 9 22 00 19.3 106.9 994 35 3 Image Chart
1996 9 22 06 19.2 106.2 996 35 3 Image Chart
1996 9 22 12 18.8 105.7 1000 0 2 Image Chart
1996 9 22 18 18.4 104.7 1002 0 2 Image Chart
1996 9 23 00 18.0 103.6 1004 0 2 Image Chart
1996 9 23 06 17.9 102.0 1004 0 2 Image Chart
1996 9 23 12 18.9 100.3 1004 0 2 Image Chart
Japan Meteorological Agency Best Track Data | Correction Date : 1997-01-07
< Typhoon 199618 1996 Season Typhoon 199620 >

Help